^^
Saratoga-Weather Station Historical Data
Daily Summary for August 21, 2020 Units:  English    Metric   Both
Daily Weekly Monthly Yearly Custom
  High: Low: Average:
Temperature: 85.3 °F 71.4 °F 77.4 °F
Dew Point: 67.5 °F 61.5 °F 64.2 °F
Humidity: 79% 50% 64%
Wind Speed: 8.1mph 0mph 1.3mph
Wind Gust: 13mph - -
Wind- - WSW
Pressure: 29.9 in 29.7 in -
Precipitation: 0 in    
Historical Graphs
 
 
Tabular Data for August 21, 2020
Time Temperature Dew Point Pressure Wind Wind Speed Wind Gust Humidity Rainfall Rate (Hourly) solar
00:04 78.1 °F 64 °F 29.7 in SW 2 mph 2 mph 62% 0 in 0 W/m2
00:09 77.4 °F 64.2 °F 29.7 in Calm   1 mph 64% 0 in 0 W/m2
00:14 76.8 °F 64.2 °F 29.7 in Calm   1 mph 65% 0 in 0 W/m2
00:19 76.5 °F 64.2 °F 29.7 in SSW 0.9 mph 1 mph 66% 0 in 0 W/m2
00:24 75.9 °F 64.2 °F 29.7 in Calm   1 mph 67% 0 in 0 W/m2
00:30 75.6 °F 64.2 °F 29.7 in SSW 0.9 mph 2 mph 68% 0 in 0 W/m2
00:35 75.4 °F 64 °F 29.7 in Calm     68% 0 in 0 W/m2
00:40 75 °F 64.2 °F 29.7 in Calm   2 mph 69% 0 in 0 W/m2
00:45 74.8 °F 64 °F 29.7 in Calm   2 mph 69% 0 in 0 W/m2
00:50 74.7 °F 63.9 °F 29.7 in Calm     69% 0 in 0 W/m2
00:55 74.5 °F 64 °F 29.7 in Calm     70% 0 in 0 W/m2
01:00 74.1 °F 63.7 °F 29.7 in Calm   2 mph 70% 0 in 0 W/m2
01:05 73.9 °F 63.5 °F 29.7 in Calm   1 mph 70% 0 in 0 W/m2
01:10 73.9 °F 63.9 °F 29.7 in Calm     71% 0 in 0 W/m2
01:15 73.8 °F 63.7 °F 29.7 in Calm     71% 0 in 0 W/m2
01:20 73.4 °F 63.5 °F 29.7 in Calm     71% 0 in 0 W/m2
01:25 73.2 °F 63.3 °F 29.7 in Calm   1 mph 71% 0 in 0 W/m2
01:30 73.2 °F 63.3 °F 29.7 in Calm     71% 0 in 0 W/m2
01:36 73 °F 63.5 °F 29.7 in Calm     72% 0 in 0 W/m2
01:41 72.9 °F 63.7 °F 29.7 in Calm   1 mph 73% 0 in 0 W/m2
01:46 72.7 °F 63.5 °F 29.7 in Calm   1 mph 73% 0 in 0 W/m2
01:51 72.5 °F 63.7 °F 29.7 in Calm     74% 0 in 0 W/m2
01:56 72.3 °F 63.5 °F 29.7 in Calm     74% 0 in 0 W/m2
02:01 72.1 °F 63.3 °F 29.7 in Calm     74% 0 in 0 W/m2
02:06 72.1 °F 63.3 °F 29.7 in Calm   1 mph 74% 0 in 0 W/m2
02:11 72 °F 63.7 °F 29.7 in Calm   1 mph 75% 0 in 0 W/m2
02:16 72 °F 63.1 °F 29.7 in Calm   1 mph 74% 0 in 0 W/m2
02:21 72 °F 62.4 °F 29.7 in ENE 0.9 mph 1 mph 72% 0 in 0 W/m2
02:26 72.1 °F 62.6 °F 29.7 in Calm   2 mph 72% 0 in 0 W/m2
02:31 72.5 °F 63 °F 29.7 in Calm   1 mph 72% 0 in 0 W/m2
02:36 72.7 °F 62.2 °F 29.7 in North 0.9 mph 1 mph 70% 0 in 0 W/m2
02:41 72.9 °F 63.3 °F 29.7 in Calm   1 mph 72% 0 in 0 W/m2
02:46 72.9 °F 63 °F 29.7 in WSW 0.9 mph 1 mph 71% 0 in 0 W/m2
02:51 72.9 °F 63.3 °F 29.7 in WSW 0.9 mph 2 mph 72% 0 in 0 W/m2
02:56 72.9 °F 63 °F 29.7 in Calm   1 mph 71% 0 in 0 W/m2
03:01 73 °F 63.5 °F 29.7 in WSW 2 mph 2 mph 72% 0 in 0 W/m2
03:06 73 °F 63.1 °F 29.7 in Calm   2 mph 71% 0 in 0 W/m2
03:11 73 °F 62.6 °F 29.7 in SW 0.9 mph 1 mph 70% 0 in 0 W/m2
03:16 73 °F 62.6 °F 29.7 in Calm   2 mph 70% 0 in 0 W/m2
03:21 73 °F 63.1 °F 29.7 in SW 0.9 mph 2 mph 71% 0 in 0 W/m2
03:26 73 °F 63.1 °F 29.7 in Calm   2 mph 71% 0 in 0 W/m2
03:31 72.9 °F 62.4 °F 29.7 in Calm   2 mph 70% 0 in 0 W/m2
03:36 72.9 °F 62.4 °F 29.7 in SE 0.9 mph 2 mph 70% 0 in 0 W/m2
03:41 72.9 °F 62.4 °F 29.7 in East 0.9 mph 2 mph 70% 0 in 0 W/m2
03:47 73 °F 61.9 °F 29.7 in Calm   2 mph 68% 0 in 0 W/m2
03:52 73.4 °F 63.5 °F 29.7 in Calm     71% 0 in 0 W/m2
03:57 73.4 °F 63 °F 29.7 in East 0.9 mph 2 mph 70% 0 in 0 W/m2
04:02 73.2 °F 63.7 °F 29.7 in East 0.9 mph 2 mph 72% 0 in 0 W/m2
04:07 73 °F 63.5 °F 29.7 in Calm   1 mph 72% 0 in 0 W/m2
04:12 72.9 °F 63.3 °F 29.7 in Calm     72% 0 in 0 W/m2
04:17 72.5 °F 63 °F 29.7 in South 0.9 mph 2 mph 72% 0 in 0 W/m2
04:22 72.1 °F 62.6 °F 29.7 in Calm   1 mph 72% 0 in 0 W/m2
04:27 72.1 °F 63 °F 29.7 in Calm   2 mph 73% 0 in 0 W/m2
04:32 72 °F 62.8 °F 29.7 in Calm   1 mph 73% 0 in 0 W/m2
04:37 71.8 °F 63 °F 29.7 in South 0.9 mph 1 mph 74% 0 in 0 W/m2
04:42 71.6 °F 63.3 °F 29.7 in Calm     75% 0 in 0 W/m2
04:47 71.4 °F 63.1 °F 29.7 in Calm     75% 0 in 0 W/m2
04:52 71.4 °F 63.1 °F 29.7 in Calm   2 mph 75% 0 in 0 W/m2
04:57 71.4 °F 62.8 °F 29.7 in Calm     74% 0 in 0 W/m2
05:02 71.4 °F 63.1 °F 29.7 in Calm     75% 0 in 0 W/m2
05:08 71.4 °F 63.1 °F 29.7 in Calm   1 mph 75% 0 in 0 W/m2
05:13 71.4 °F 63.1 °F 29.7 in SSE 0.9 mph 2 mph 75% 0 in 0 W/m2
05:18 71.8 °F 63 °F 29.7 in ENE 2 mph 3 mph 74% 0 in 0 W/m2
05:23 72 °F 63.1 °F 29.7 in Calm   1 mph 74% 0 in 0 W/m2
05:28 72 °F 63.1 °F 29.7 in Calm   3 mph 74% 0 in 0 W/m2
05:33 72.1 °F 63.3 °F 29.7 in Calm     74% 0 in 0 W/m2
05:38 72 °F 63.1 °F 29.7 in Calm     74% 0 in 0 W/m2
05:43 72 °F 63.1 °F 29.7 in Calm     74% 0 in 0 W/m2
05:48 72 °F 62.8 °F 29.7 in NNW 0.9 mph 3 mph 73% 0 in 0 W/m2
05:53 72.1 °F 63 °F 29.7 in Calm     73% 0 in 0 W/m2
05:58 72.3 °F 63.5 °F 29.7 in NW 3 mph 3 mph 74% 0 in 0 W/m2
06:03 72.3 °F 63.1 °F 29.7 in Calm   1 mph 73% 0 in 0 W/m2
06:08 72.7 °F 63.1 °F 29.7 in ESE 0.9 mph 2 mph 72% 0 in 0 W/m2
06:13 72.9 °F 63 °F 29.7 in Calm   1 mph 71% 0 in 0 W/m2
06:18 73.2 °F 62.4 °F 29.7 in Calm   1 mph 69% 0 in 0 W/m2
06:23 73.6 °F 62.8 °F 29.7 in Calm   3 mph 69% 0 in 0 W/m2
06:28 73.9 °F 62.8 °F 29.7 in ENE 0.9 mph 2 mph 68% 0 in 0 W/m2
06:33 74.3 °F 62.6 °F 29.7 in Calm   2 mph 67% 0 in 5 W/m2
06:38 74.7 °F 62.1 °F 29.7 in Calm     65% 0 in 5 W/m2
06:43 75.2 °F 62.2 °F 29.7 in NE 2 mph 3 mph 64% 0 in 7 W/m2
06:48 75.6 °F 62.1 °F 29.7 in NE 2.9 mph 4 mph 63% 0 in 9 W/m2
06:53 75.9 °F 61.9 °F 29.7 in East 2.9 mph 4 mph 62% 0 in 11 W/m2
06:58 76.5 °F 62.1 °F 29.7 in SE 2 mph 2 mph 61% 0 in 12 W/m2
07:03 76.5 °F 62.1 °F 29.7 in Calm   4 mph 61% 0 in 19 W/m2
07:08 76.5 °F 61.5 °F 29.7 in Calm   5 mph 60% 0 in 26 W/m2
07:13 76.5 °F 62.1 °F 29.7 in North 0.9 mph 2 mph 61% 0 in 30 W/m2
07:19 76.6 °F 61.7 °F 29.7 in WNW 2 mph 5 mph 60% 0 in 32 W/m2
07:24 76.6 °F 61.7 °F 29.7 in Calm   1 mph 60% 0 in 32 W/m2
07:29 76.8 °F 61.9 °F 29.7 in WNW 2 mph 9 mph 60% 0 in 39 W/m2
07:34 77 °F 61.5 °F 29.8 in NW 2.9 mph 3 mph 59% 0 in 54 W/m2
07:39 77.2 °F 61.7 °F 29.8 in NNE 4.9 mph 7 mph 59% 0 in 70 W/m2
07:45 77.4 °F 62.4 °F 29.8 in WNW 2 mph 4 mph 60% 0 in 79 W/m2
07:50 77.5 °F 62.6 °F 29.8 in NNW 4 mph 6 mph 60% 0 in 74 W/m2
07:55 77.5 °F 62.6 °F 29.8 in NNW 2 mph 7 mph 60% 0 in 95 W/m2
08:00 77.7 °F 63.1 °F 29.8 in NW 2 mph 4 mph 61% 0 in 90 W/m2
08:05 77.5 °F 63.5 °F 29.8 in West 2 mph 11 mph 62% 0 in 86 W/m2
08:10 77.2 °F 62.6 °F 29.8 in West 6 mph 7 mph 61% 0 in 76 W/m2
08:15 76.8 °F 62.4 °F 29.8 in West 2 mph 4 mph 61% 0 in 76 W/m2
08:20 76.6 °F 62.2 °F 29.8 in West 8.1 mph 8 mph 61% 0 in 86 W/m2
08:25 76.3 °F 62.2 °F 29.8 in WSW 4.9 mph 13 mph 62% 0 in 81 W/m2
08:30 75.9 °F 62.4 °F 29.8 in WNW 6.9 mph 10 mph 63% 0 in 69 W/m2
08:35 75.7 °F 62.2 °F 29.8 in WNW 2.9 mph 9 mph 63% 0 in 62 W/m2
08:40 75.6 °F 62.1 °F 29.8 in West 4 mph 10 mph 63% 0 in 67 W/m2
08:45 75.4 °F 62.4 °F 29.8 in WNW 4 mph 7 mph 64% 0 in 77 W/m2
08:51 75.4 °F 62.4 °F 29.8 in WNW 4.9 mph 6 mph 64% 0 in 63 W/m2
08:56 75.4 °F 62.8 °F 29.8 in West 2 mph 4 mph 65% 0 in 62 W/m2
09:01 75.2 °F 62.2 °F 29.8 in NW 2.9 mph 4 mph 64% 0 in 58 W/m2
09:06 75 °F 62.4 °F 29.8 in North 2 mph 4 mph 65% 0 in 67 W/m2
09:11 75 °F 63 °F 29.8 in NW 0.9 mph 3 mph 66% 0 in 105 W/m2
09:16 75 °F 63 °F 29.8 in NW 2 mph 2 mph 66% 0 in 105 W/m2
09:21 75 °F 63 °F 29.8 in West 2.9 mph 4 mph 66% 0 in 132 W/m2
09:26 75 °F 63.3 °F 29.8 in Calm   1 mph 67% 0 in 109 W/m2
09:31 75 °F 63 °F 29.8 in Calm   1 mph 66% 0 in 111 W/m2
09:36 75.2 °F 63.1 °F 29.8 in Calm     66% 0 in 88 W/m2
09:41 75.4 °F 63.7 °F 29.8 in Calm   1 mph 67% 0 in 153 W/m2
09:46 75.4 °F 64 °F 29.8 in Calm     68% 0 in 104 W/m2
09:51 75.4 °F 64.9 °F 29.8 in SW 0.9 mph 1 mph 70% 0 in 93 W/m2
09:56 75.4 °F 64.6 °F 29.8 in SW 0.9 mph 2 mph 69% 0 in 95 W/m2
10:01 75.2 °F 63.9 °F 29.8 in West 2 mph 2 mph 68% 0 in 90 W/m2
10:06 75 °F 64.9 °F 29.8 in SW 0.9 mph 2 mph 71% 0 in 63 W/m2
10:11 74.8 °F 65.1 °F 29.8 in Calm   1 mph 72% 0 in 77 W/m2
10:16 74.7 °F 66.2 °F 29.8 in Calm     75% 0 in 70 W/m2
10:21 74.5 °F 66.7 °F 29.8 in SSW 2 mph 2 mph 77% 0 in 142 W/m2
10:26 73.9 °F 66.6 °F 29.8 in Calm   1 mph 78% 0 in 207 W/m2
10:31 73.9 °F 67.1 °F 29.8 in SSW 2 mph 2 mph 79% 0 in 199 W/m2
10:36 74.3 °F 65.8 °F 29.8 in ENE 2 mph 2 mph 75% 0 in 227 W/m2
10:41 74.7 °F 65.8 °F 29.8 in WNW 2 mph 3 mph 74% 0 in 200 W/m2
10:46 74.8 °F 65.7 °F 29.8 in WNW 0.9 mph 2 mph 73% 0 in 236 W/m2
10:51 75 °F 64.9 °F 29.8 in Calm   2 mph 71% 0 in 178 W/m2
10:56 75.4 °F 65.3 °F 29.8 in ENE 0.9 mph 2 mph 71% 0 in 165 W/m2
11:01 75.6 °F 65.5 °F 29.8 in Calm   2 mph 71% 0 in 248 W/m2
11:06 75.9 °F 66.6 °F 29.8 in East 0.9 mph 3 mph 73% 0 in 765 W/m2
11:12 76.5 °F 66 °F 29.8 in WSW 2 mph 4 mph 70% 0 in 308 W/m2
11:17 76.6 °F 64.9 °F 29.8 in WNW 2 mph 3 mph 67% 0 in 281 W/m2
11:22 77.2 °F 64.9 °F 29.8 in WSW 2.9 mph 3 mph 66% 0 in 323 W/m2
11:27 77.4 °F 64.8 °F 29.8 in WSW 0.9 mph 5 mph 65% 0 in 260 W/m2
11:32 77.4 °F 65.1 °F 29.8 in Calm   1 mph 66% 0 in 193 W/m2
11:37 77.5 °F 64.4 °F 29.8 in Calm   5 mph 64% 0 in 181 W/m2
11:42 77.7 °F 64.9 °F 29.8 in Calm   1 mph 65% 0 in 178 W/m2
11:47 78.1 °F 64.9 °F 29.8 in Calm     64% 0 in 183 W/m2
11:52 78.3 °F 65.1 °F 29.8 in Calm   1 mph 64% 0 in 236 W/m2
11:57 78.3 °F 65.1 °F 29.8 in Calm     64% 0 in 248 W/m2
12:02 78.6 °F 64.9 °F 29.8 in Calm     63% 0 in 223 W/m2
12:07 79 °F 65.8 °F 29.8 in Calm     64% 0 in 246 W/m2
12:12 79.2 °F 65.8 °F 29.8 in Calm     64% 0 in 229 W/m2
12:17 79.3 °F 65.7 °F 29.8 in Calm     63% 0 in 200 W/m2
12:22 79.5 °F 65.3 °F 29.8 in Calm   1 mph 62% 0 in 188 W/m2
12:27 79.5 °F 65.8 °F 29.8 in WNW 2 mph 2 mph 63% 0 in 130 W/m2
12:32 79.3 °F 65.7 °F 29.8 in Calm   1 mph 63% 0 in 114 W/m2
12:37 79.2 °F 66.7 °F 29.8 in Calm     66% 0 in 123 W/m2
12:42 79.2 °F 66.7 °F 29.8 in Calm     66% 0 in 107 W/m2
12:47 79.2 °F 67.3 °F 29.8 in Calm     67% 0 in 118 W/m2
12:52 79 °F 66.6 °F 29.8 in Calm     66% 0 in 151 W/m2
12:57 79 °F 67.5 °F 29.8 in Calm     68% 0 in 148 W/m2
13:02 79 °F 67.1 °F 29.8 in WNW 0.9 mph 2 mph 67% 0 in 165 W/m2
13:07 78.8 °F 65.1 °F 29.8 in Calm   2 mph 63% 0 in 202 W/m2
13:12 79 °F 65.3 °F 29.8 in Calm   1 mph 63% 0 in 223 W/m2
13:17 79.2 °F 64.6 °F 29.8 in NW 2.9 mph 3 mph 61% 0 in 225 W/m2
13:22 79.2 °F 64.9 °F 29.8 in WSW 0.9 mph 3 mph 62% 0 in 214 W/m2
13:27 79.3 °F 64.8 °F 29.8 in Calm   1 mph 61% 0 in 260 W/m2
13:32 79.5 °F 64.9 °F 29.8 in NW 0.9 mph 3 mph 61% 0 in 223 W/m2
13:37 79.9 °F 65.3 °F 29.8 in WNW 0.9 mph 1 mph 61% 0 in 253 W/m2
13:42 80.1 °F 65.5 °F 29.8 in NW 2 mph 3 mph 61% 0 in 287 W/m2
13:47 80.2 °F 65.5 °F 29.8 in Calm   1 mph 61% 0 in 380 W/m2
13:52 80.6 °F 64.9 °F 29.8 in NW 0.9 mph 3 mph 59% 0 in 322 W/m2
13:57 80.8 °F 65.1 °F 29.8 in NW 0.9 mph 1 mph 59% 0 in 316 W/m2
14:02 81.1 °F 64.9 °F 29.8 in Calm   3 mph 58% 0 in 367 W/m2
14:07 81.5 °F 64.8 °F 29.8 in Calm   4 mph 57% 0 in 485 W/m2
14:12 81.9 °F 65.1 °F 29.8 in West 0.9 mph 4 mph 57% 0 in 483 W/m2
14:17 82.4 °F 65.1 °F 29.8 in Calm   3 mph 56% 0 in 483 W/m2
14:22 82.9 °F 64 °F 29.8 in Calm   2 mph 53% 0 in 466 W/m2
14:27 83.5 °F 64 °F 29.8 in East 2 mph 4 mph 52% 0 in 570 W/m2
14:32 83.8 °F 64.4 °F 29.8 in West 6 mph 7 mph 52% 0 in 974 W/m2
14:37 84.2 °F 63.5 °F 29.8 in SSW 0.9 mph 3 mph 50% 0 in 610 W/m2
14:42 84.4 °F 63.7 °F 29.8 in WNW 2 mph 7 mph 50% 0 in 334 W/m2
14:47 84 °F 63.9 °F 29.8 in WNW 4 mph 6 mph 51% 0 in 396 W/m2
14:52 83.7 °F 64.2 °F 29.8 in WNW 6.9 mph 7 mph 52% 0 in 369 W/m2
14:57 83.7 °F 63 °F 29.8 in West 2.9 mph 3 mph 50% 0 in 434 W/m2
15:02 83.8 °F 63.9 °F 29.8 in NE 0.9 mph 3 mph 51% 0 in 422 W/m2
15:07 84 °F 63.9 °F 29.8 in Calm   3 mph 51% 0 in 380 W/m2
15:12 84.4 °F 63.7 °F 29.9 in North 2 mph 5 mph 50% 0 in 269 W/m2
15:17 84.4 °F 64.2 °F 29.8 in WNW 2.9 mph 3 mph 51% 0 in 404 W/m2
15:22 84 °F 64.6 °F 29.8 in NW 2.9 mph 5 mph 52% 0 in 251 W/m2
15:27 83.7 °F 64.2 °F 29.8 in WNW 2 mph 7 mph 52% 0 in 287 W/m2
15:32 83.7 °F 64.8 °F 29.8 in West 2 mph 7 mph 53% 0 in 332 W/m2
15:37 83.5 °F 64 °F 29.8 in NNW 0.9 mph 4 mph 52% 0 in 287 W/m2
15:42 83.5 °F 64 °F 29.8 in WNW 2.9 mph 4 mph 52% 0 in 334 W/m2
15:47 83.7 °F 64.8 °F 29.8 in SW 2 mph 4 mph 53% 0 in 360 W/m2
15:52 83.5 °F 64 °F 29.8 in NW 4.9 mph 7 mph 52% 0 in 295 W/m2
15:57 83.5 °F 64.6 °F 29.8 in NW 2 mph 5 mph 53% 0 in 258 W/m2
16:02 83.5 °F 64.6 °F 29.8 in West 2 mph 3 mph 53% 0 in 237 W/m2
16:07 83.5 °F 64 °F 29.8 in NW 2.9 mph 4 mph 52% 0 in 401 W/m2
16:12 83.7 °F 64.8 °F 29.8 in North 0.9 mph 3 mph 53% 0 in 380 W/m2
16:17 83.8 °F 64.4 °F 29.8 in NW 2 mph 5 mph 52% 0 in 385 W/m2
16:22 84.2 °F 65.3 °F 29.8 in North 2.9 mph 3 mph 53% 0 in 396 W/m2
16:27 84.4 °F 65.3 °F 29.8 in West 6 mph 8 mph 53% 0 in 311 W/m2
16:32 84.4 °F 65.3 °F 29.8 in WNW 8.1 mph 8 mph 53% 0 in 387 W/m2
16:37 84.7 °F 65.1 °F 29.8 in WNW 2.9 mph 4 mph 52% 0 in 680 W/m2
16:42 85.3 °F 65.7 °F 29.8 in WNW 0.9 mph 3 mph 52% 0 in 647 W/m2
16:47 85.3 °F 65.1 °F 29.8 in WSW 4.9 mph 9 mph 51% 0 in 199 W/m2
16:52 84.7 °F 65.7 °F 29.8 in West 2.9 mph 8 mph 53% 0 in 292 W/m2
16:57 84.2 °F 64.6 °F 29.8 in NW 2 mph 5 mph 52% 0 in 155 W/m2
17:02 84 °F 65.1 °F 29.8 in West 0.9 mph 8 mph 53% 0 in 148 W/m2
17:07 83.8 °F 64.9 °F 29.8 in Calm   2 mph 53% 0 in 380 W/m2
17:12 84 °F 65.7 °F 29.8 in West 2 mph 6 mph 54% 0 in 388 W/m2
17:17 84.4 °F 65.8 °F 29.8 in NW 4.9 mph 8 mph 54% 0 in 517 W/m2
17:22 84.4 °F 65.3 °F 29.9 in WSW 2 mph 5 mph 53% 0 in 287 W/m2
17:27 84.7 °F 66.2 °F 29.9 in WNW 2.9 mph 5 mph 54% 0 in 292 W/m2
17:32 84.6 °F 65.5 °F 29.9 in West 4 mph 10 mph 53% 0 in 216 W/m2
17:37 83.8 °F 65.5 °F 29.9 in Calm   6 mph 54% 0 in 178 W/m2
17:42 83.7 °F 65.8 °F 29.8 in NW 2 mph 9 mph 55% 0 in 181 W/m2
17:48 83.5 °F 65.7 °F 29.9 in West 4 mph 7 mph 55% 0 in 190 W/m2
17:53 83.1 °F 65.8 °F 29.9 in WNW 2 mph 9 mph 56% 0 in 162 W/m2
17:58 82.9 °F 65.7 °F 29.9 in West 0.9 mph 4 mph 56% 0 in 113 W/m2
18:03 82.8 °F 64.9 °F 29.9 in WNW 4.9 mph 7 mph 55% 0 in 135 W/m2
18:08 82.6 °F 65.3 °F 29.9 in West 4 mph 8 mph 56% 0 in 102 W/m2
18:13 82.2 °F 65.5 °F 29.9 in WNW 0.9 mph 2 mph 57% 0 in 93 W/m2
18:18 82 °F 65.3 °F 29.9 in West 2.9 mph 3 mph 57% 0 in 123 W/m2
18:23 81.9 °F 66.2 °F 29.9 in West 0.9 mph 4 mph 59% 0 in 70 W/m2
18:28 81.5 °F 66.2 °F 29.9 in WSW 0.9 mph 4 mph 60% 0 in 72 W/m2
18:33 81.1 °F 67.3 °F 29.9 in Calm     63% 0 in 46 W/m2
18:38 80.8 °F 66.9 °F 29.9 in Calm   4 mph 63% 0 in 53 W/m2
18:43 80.4 °F 66.2 °F 29.8 in WNW 2 mph 5 mph 62% 0 in 86 W/m2
18:48 80.8 °F 67.5 °F 29.8 in WNW 4 mph 4 mph 64% 0 in 373 W/m2
18:53 80.8 °F 66.9 °F 29.9 in WNW 2 mph 7 mph 63% 0 in 206 W/m2
18:58 80.8 °F 66.9 °F 29.9 in West 0.9 mph 3 mph 63% 0 in 345 W/m2
19:03 80.8 °F 66.9 °F 29.9 in NW 0.9 mph 4 mph 63% 0 in 120 W/m2
19:08 80.6 °F 67.3 °F 29.9 in NW 2 mph 2 mph 64% 0 in 65 W/m2
19:13 80.2 °F 66.9 °F 29.9 in NNE 2 mph 4 mph 64% 0 in 42 W/m2
Juneau County Weather
Compliments of Weather Underground - 2 mb